Terminal Aerodrome Forecast
Issued by NWS

Home | Current Version | Previous Version | Text Only | Print | Product List | Glossary On
Versions: 1 2 3 4 5 6 7 8 9 10 11 12 13 14 15 16 17 18 19 20 21 22 23
000
FTUS42 KFFC 261504 AAA
TAFPDK
TAF AMD
KPDK 261504Z 2615/2712 VRB03KT P6SM BKN250
     FM270000 00000KT P6SM BKN150
     FM270900 00000KT P6SM BKN090=

USA.gov is the U.S. government's official web portal to all federal, state and local government web resources and services.